createdAt,value
2016-03-31T00:00:54.601Z,984.46
2016-03-31T00:01:57.618Z,984.53
2016-03-31T00:02:54.606Z,984.6
2016-03-31T00:03:54.593Z,984.59
2016-03-31T00:04:54.612Z,984.63
2016-03-31T00:05:54.598Z,984.61
2016-03-31T00:06:54.600Z,984.58
2016-03-31T00:07:54.603Z,984.59
2016-03-31T00:08:54.606Z,984.64
2016-03-31T00:09:54.609Z,984.73
2016-03-31T00:10:54.611Z,984.84
2016-03-31T00:11:54.614Z,984.94
2016-03-31T00:12:54.617Z,985.05
2016-03-31T00:13:54.620Z,985.09
2016-03-31T00:14:54.639Z,985.11
2016-03-31T00:15:54.625Z,985.11
2016-03-31T00:16:54.627Z,985.11
2016-03-31T00:17:54.614Z,985.18
2016-03-31T00:18:54.616Z,985.24
2016-03-31T00:19:54.623Z,985.21
2016-03-31T00:20:54.616Z,985.22
2016-03-31T00:21:54.633Z,985.16
2016-03-31T00:22:54.620Z,985.1
2016-03-31T00:23:54.624Z,985.08
2016-03-31T00:24:54.626Z,985.03
2016-03-31T00:25:54.629Z,985.05
2016-03-31T00:26:54.632Z,985.1
2016-03-31T00:27:54.618Z,985.22
2016-03-31T00:28:54.621Z,985.34
2016-03-31T00:29:54.624Z,985.43
2016-03-31T00:30:54.631Z,985.47
2016-03-31T00:31:54.635Z,985.52
2016-03-31T00:32:54.624Z,985.61
2016-03-31T00:33:54.626Z,985.61
2016-03-31T00:34:54.629Z,985.68
2016-03-31T00:35:54.648Z,985.74
2016-03-31T00:36:54.635Z,985.75
2016-03-31T00:37:54.637Z,985.8
2016-03-31T00:38:54.624Z,985.84
2016-03-31T00:39:54.628Z,985.84
2016-03-31T00:40:54.630Z,985.9
2016-03-31T00:41:54.633Z,985.95
2016-03-31T00:42:54.636Z,986.07
2016-03-31T00:43:54.638Z,986.16
2016-03-31T00:44:54.641Z,986.18
2016-03-31T00:45:54.644Z,986.19
2016-03-31T00:46:54.646Z,986.15
2016-03-31T00:47:54.649Z,986.06
2016-03-31T00:48:54.652Z,985.99
2016-03-31T00:49:54.669Z,985.99
2016-03-31T00:50:54.642Z,985.91
2016-03-31T00:51:54.660Z,985.91
2016-03-31T00:52:54.663Z,985.85
2016-03-31T00:53:54.649Z,985.88
2016-03-31T00:54:54.652Z,985.89
2016-03-31T00:55:54.654Z,985.89
2016-03-31T00:56:54.657Z,985.83
2016-03-31T00:57:54.660Z,985.82
2016-03-31T00:58:54.663Z,985.79
2016-03-31T00:59:54.665Z,985.73
2016-03-31T01:00:54.652Z,985.62
2016-03-31T01:01:54.671Z,985.6
2016-03-31T01:02:54.673Z,985.48
2016-03-31T01:03:54.676Z,985.41
2016-03-31T01:04:54.679Z,985.35
2016-03-31T01:05:54.681Z,985.36
2016-03-31T01:06:54.668Z,985.36
2016-03-31T01:07:54.671Z,985.34
2016-03-31T01:08:54.673Z,985.27
2016-03-31T01:09:54.677Z,985.34
2016-03-31T01:10:54.664Z,985.4
2016-03-31T01:11:54.682Z,985.41
2016-03-31T01:12:54.684Z,985.38
2016-03-31T01:13:54.672Z,985.27
2016-03-31T01:14:54.675Z,985.28
2016-03-31T01:15:54.692Z,985.26
2016-03-31T01:16:54.680Z,985.24
2016-03-31T01:17:54.698Z,985.31
2016-03-31T01:18:54.685Z,985.28
2016-03-31T01:19:54.688Z,985.29
2016-03-31T01:20:54.690Z,985.28
2016-03-31T01:21:54.693Z,985.25
2016-03-31T01:22:54.696Z,985.31
2016-03-31T01:23:54.699Z,985.34
2016-03-31T01:24:54.701Z,985.4
2016-03-31T01:25:54.704Z,985.37
2016-03-31T01:26:54.706Z,985.41
2016-03-31T01:27:54.709Z,985.35
2016-03-31T01:28:54.712Z,985.42
2016-03-31T01:29:54.698Z,985.4
2016-03-31T01:30:54.701Z,985.46
2016-03-31T01:31:54.704Z,985.45
2016-03-31T01:32:54.707Z,985.45
2016-03-31T01:33:54.709Z,985.46
2016-03-31T01:34:54.712Z,985.42
2016-03-31T01:35:54.715Z,985.49
2016-03-31T01:36:54.717Z,985.52
2016-03-31T01:37:54.720Z,985.51
2016-03-31T01:38:54.724Z,985.51
2016-03-31T01:39:54.726Z,985.46
2016-03-31T01:40:54.713Z,985.41
2016-03-31T01:41:54.732Z,985.43
2016-03-31T01:42:54.734Z,985.4
2016-03-31T01:43:54.722Z,985.39
2016-03-31T01:44:54.739Z,985.37
2016-03-31T01:45:54.727Z,985.36
2016-03-31T01:46:54.730Z,985.33
2016-03-31T01:47:54.732Z,985.3
2016-03-31T01:48:54.735Z,985.25
2016-03-31T01:49:54.738Z,985.21
2016-03-31T01:50:54.724Z,985.23
2016-03-31T01:51:54.743Z,985.21
2016-03-31T01:52:54.730Z,985.22
2016-03-31T01:53:54.732Z,985.19
2016-03-31T01:54:54.735Z,985.14
2016-03-31T01:55:54.738Z,985.13
2016-03-31T01:56:54.771Z,985.08
2016-03-31T01:57:54.743Z,985.05
2016-03-31T01:58:54.746Z,985
2016-03-31T01:59:54.749Z,984.94
2016-03-31T02:00:54.751Z,984.91
2016-03-31T02:01:54.754Z,984.91
2016-03-31T02:02:54.757Z,984.88
2016-03-31T02:03:54.743Z,984.89
2016-03-31T02:04:54.746Z,984.88
2016-03-31T02:05:54.749Z,984.86
2016-03-31T02:06:54.751Z,984.92
2016-03-31T02:07:54.747Z,984.94
2016-03-31T02:08:54.750Z,984.93
2016-03-31T02:09:54.752Z,984.96
2016-03-31T02:10:54.756Z,984.94
2016-03-31T02:11:54.743Z,984.94
2016-03-31T02:12:54.761Z,984.93
2016-03-31T02:13:54.763Z,984.95
2016-03-31T02:14:54.766Z,984.95
2016-03-31T02:15:54.753Z,984.98
2016-03-31T02:16:54.756Z,985
2016-03-31T02:17:54.762Z,985.01
2016-03-31T02:18:54.765Z,985
2016-03-31T02:19:54.768Z,985
2016-03-31T02:20:54.770Z,985.04
2016-03-31T02:21:54.773Z,984.97
2016-03-31T02:22:54.775Z,984.94
2016-03-31T02:23:54.762Z,985
2016-03-31T02:24:54.764Z,984.93
2016-03-31T02:25:54.767Z,984.94
2016-03-31T02:26:54.770Z,984.92
2016-03-31T02:27:54.772Z,984.94
2016-03-31T02:28:54.775Z,984.94
2016-03-31T02:29:54.778Z,984.99
2016-03-31T02:30:54.780Z,984.94
2016-03-31T02:31:54.768Z,984.99
2016-03-31T02:32:54.771Z,984.96
2016-03-31T02:33:54.774Z,984.95
2016-03-31T02:34:54.776Z,984.95
2016-03-31T02:35:54.779Z,984.94
2016-03-31T02:36:54.782Z,984.86
2016-03-31T02:37:54.784Z,984.84
2016-03-31T02:38:54.768Z,984.78
2016-03-31T02:39:54.790Z,984.86
2016-03-31T02:40:54.774Z,984.9
2016-03-31T02:41:54.776Z,984.91
2016-03-31T02:42:54.780Z,984.94
2016-03-31T02:43:54.798Z,984.97
2016-03-31T02:44:54.785Z,984.91
2016-03-31T02:45:54.787Z,984.84
2016-03-31T02:46:54.791Z,984.78
2016-03-31T02:47:54.793Z,984.85
2016-03-31T02:48:54.795Z,984.91
2016-03-31T02:49:54.798Z,984.97
2016-03-31T02:50:57.803Z,984.92
2016-03-31T02:51:54.787Z,984.92
2016-03-31T02:52:54.791Z,984.87
2016-03-31T02:53:54.793Z,984.92
2016-03-31T02:54:54.796Z,984.91
2016-03-31T02:55:54.798Z,984.88
2016-03-31T02:56:54.801Z,984.91
2016-03-31T02:57:54.804Z,984.85
2016-03-31T02:58:54.806Z,984.85
2016-03-31T02:59:54.794Z,984.9
2016-03-31T03:00:54.812Z,984.94
2016-03-31T03:01:54.799Z,984.83
2016-03-31T03:02:57.805Z,984.77
2016-03-31T03:03:54.805Z,984.75
2016-03-31T03:04:54.808Z,984.77
2016-03-31T03:05:54.810Z,984.75
2016-03-31T03:06:54.797Z,984.8
2016-03-31T03:07:54.790Z,984.82
2016-03-31T03:08:54.781Z,984.8
2016-03-31T03:09:54.784Z,984.72
2016-03-31T03:10:54.786Z,984.71
2016-03-31T03:11:54.790Z,984.73
2016-03-31T03:12:54.777Z,984.68
2016-03-31T03:13:54.795Z,984.69
2016-03-31T03:14:54.783Z,984.68
2016-03-31T03:15:54.800Z,984.66
2016-03-31T03:16:54.788Z,984.68
2016-03-31T03:17:54.806Z,984.67
2016-03-31T03:18:54.794Z,984.66
2016-03-31T03:19:54.796Z,984.66
2016-03-31T03:20:54.782Z,984.61
2016-03-31T03:21:54.786Z,984.63
2016-03-31T03:22:54.804Z,984.66
2016-03-31T03:23:54.791Z,984.62
2016-03-31T03:24:54.794Z,984.6
2016-03-31T03:25:54.796Z,984.57
2016-03-31T03:26:54.799Z,984.6
2016-03-31T03:27:54.786Z,984.56
2016-03-31T03:28:54.790Z,984.59
2016-03-31T03:29:54.792Z,984.61
2016-03-31T03:30:54.794Z,984.6
2016-03-31T03:31:54.798Z,984.55
2016-03-31T03:32:54.800Z,984.51
2016-03-31T03:33:54.803Z,984.52
2016-03-31T03:34:54.790Z,984.48
2016-03-31T03:35:54.808Z,984.49
2016-03-31T03:36:54.794Z,984.46
2016-03-31T03:37:54.797Z,984.47
2016-03-31T03:38:54.800Z,984.46
2016-03-31T03:39:54.786Z,984.41
2016-03-31T03:40:54.805Z,984.43
2016-03-31T03:41:54.808Z,984.43
2016-03-31T03:42:54.811Z,984.41
2016-03-31T03:43:54.797Z,984.4
2016-03-31T03:44:54.801Z,984.39
2016-03-31T03:45:54.788Z,984.36
2016-03-31T03:46:54.805Z,984.39
2016-03-31T03:47:54.794Z,984.38
2016-03-31T03:48:54.796Z,984.44
2016-03-31T03:49:54.830Z,984.38
2016-03-31T03:50:54.801Z,984.36
2016-03-31T03:51:54.804Z,984.38
2016-03-31T03:52:54.807Z,984.36
2016-03-31T03:53:54.794Z,984.39
2016-03-31T03:54:54.828Z,984.36
2016-03-31T03:55:54.799Z,984.35
2016-03-31T03:56:54.801Z,984.35
2016-03-31T03:57:54.805Z,984.33
2016-03-31T03:58:54.791Z,984.27
2016-03-31T03:59:54.810Z,984.31
2016-03-31T04:00:54.796Z,984.28
2016-03-31T04:01:54.815Z,984.3
2016-03-31T04:02:54.801Z,984.26
2016-03-31T04:03:54.789Z,984.27
2016-03-31T04:04:54.792Z,984.25
2016-03-31T04:05:54.810Z,984.23
2016-03-31T04:06:54.797Z,984.21
2016-03-31T04:07:54.800Z,984.2
2016-03-31T04:08:54.803Z,984.19
2016-03-31T04:09:54.805Z,984.21
2016-03-31T04:10:54.808Z,984.21
2016-03-31T04:11:54.797Z,984.18
2016-03-31T04:12:54.949Z,984.19
2016-03-31T04:13:54.833Z,984.18
2016-03-31T04:14:54.848Z,984.22
2016-03-31T04:15:54.802Z,984.2
2016-03-31T04:16:54.790Z,984.17
2016-03-31T04:17:54.777Z,984.17
2016-03-31T04:18:54.779Z,984.19
2016-03-31T04:19:54.767Z,984.15
2016-03-31T04:20:54.785Z,984.14
2016-03-31T04:21:54.771Z,984.14
2016-03-31T04:22:54.774Z,984.11
2016-03-31T04:23:54.762Z,984.11
2016-03-31T04:24:54.765Z,984.13
2016-03-31T04:25:54.783Z,984.12
2016-03-31T04:26:54.854Z,984.12
2016-03-31T04:27:54.877Z,984.16
2016-03-31T04:28:54.933Z,984.11
2016-03-31T04:29:54.988Z,984.12
2016-03-31T04:30:55.048Z,984.14
2016-03-31T04:31:55.053Z,984.2
2016-03-31T04:32:55.075Z,984.16
2016-03-31T04:33:55.081Z,984.15
2016-03-31T04:34:55.118Z,984.17
2016-03-31T04:35:55.136Z,984.17
2016-03-31T04:36:55.130Z,984.2
2016-03-31T04:37:55.139Z,984.2
2016-03-31T04:38:55.148Z,984.19
2016-03-31T04:39:55.141Z,984.16
2016-03-31T04:40:55.149Z,984.17
2016-03-31T04:41:55.154Z,984.18
2016-03-31T04:42:55.160Z,984.11
2016-03-31T04:43:55.164Z,984.12
2016-03-31T04:44:55.169Z,984.07
2016-03-31T04:45:55.174Z,984.14
2016-03-31T04:46:55.162Z,984.08
2016-03-31T04:47:55.165Z,984.09
2016-03-31T04:48:55.170Z,984.05
2016-03-31T04:49:55.173Z,983.98
2016-03-31T04:50:55.177Z,984
2016-03-31T04:51:55.165Z,984.02
2016-03-31T04:52:55.168Z,984
2016-03-31T04:53:55.171Z,984.02
2016-03-31T04:54:55.174Z,984.03
2016-03-31T04:55:55.177Z,984.03
2016-03-31T04:56:55.180Z,984.01
2016-03-31T04:57:55.167Z,984.06
2016-03-31T04:58:55.170Z,984.07
2016-03-31T04:59:55.156Z,984.06
2016-03-31T05:00:55.175Z,984.06
2016-03-31T05:01:55.178Z,984.04
2016-03-31T05:02:55.165Z,984.02
2016-03-31T05:03:55.168Z,984.04
2016-03-31T05:04:55.186Z,984.09
2016-03-31T05:05:55.158Z,984.09
2016-03-31T05:06:55.176Z,984.1
2016-03-31T05:07:55.164Z,984.03
2016-03-31T05:08:55.166Z,984.09
2016-03-31T05:09:55.169Z,984.07
2016-03-31T05:10:55.171Z,984.09
2016-03-31T05:11:55.174Z,984.08
2016-03-31T05:12:55.177Z,984.11
2016-03-31T05:13:55.163Z,984.12
2016-03-31T05:14:55.182Z,984.13
2016-03-31T05:15:55.169Z,984.17
2016-03-31T05:16:55.171Z,984.14
2016-03-31T05:17:55.175Z,984.12
2016-03-31T05:18:55.177Z,984.16
2016-03-31T05:19:55.164Z,984.15
2016-03-31T05:20:55.168Z,984.16
2016-03-31T05:21:55.170Z,984.14
2016-03-31T05:22:55.173Z,984.16
2016-03-31T05:23:55.159Z,984.17
2016-03-31T05:24:55.162Z,984.18
2016-03-31T05:25:55.181Z,984.2
2016-03-31T05:26:55.168Z,984.17
2016-03-31T05:27:55.171Z,984.17
2016-03-31T05:28:55.173Z,984.19
2016-03-31T05:29:55.175Z,984.11
2016-03-31T05:30:55.163Z,984.12
2016-03-31T05:31:55.165Z,984.11
2016-03-31T05:32:55.167Z,984.13
2016-03-31T05:33:55.170Z,984.11
2016-03-31T05:34:55.173Z,984.08
2016-03-31T05:35:55.175Z,984.09
2016-03-31T05:36:55.178Z,984.09
2016-03-31T05:37:55.166Z,984.06
2016-03-31T05:38:55.168Z,984.09
2016-03-31T05:39:55.172Z,984.03
2016-03-31T05:40:55.174Z,984.03
2016-03-31T05:41:55.177Z,984.03
2016-03-31T05:42:55.179Z,984.04
2016-03-31T05:43:55.197Z,984.02
2016-03-31T05:44:55.168Z,984.04
2016-03-31T05:45:55.172Z,984.06
2016-03-31T05:46:55.174Z,984.07
2016-03-31T05:47:55.177Z,984.02
2016-03-31T05:48:55.179Z,984.07
2016-03-31T05:49:55.183Z,984.05
2016-03-31T05:50:55.185Z,984.05
2016-03-31T05:51:55.171Z,984.08
2016-03-31T05:52:55.175Z,984.06
2016-03-31T05:53:55.193Z,984.06
2016-03-31T05:54:55.180Z,984.08
2016-03-31T05:55:55.183Z,984.08
2016-03-31T05:56:55.185Z,984.06
2016-03-31T05:57:55.188Z,984.04
2016-03-31T05:58:55.190Z,984.08
2016-03-31T05:59:55.178Z,984.13
2016-03-31T06:00:55.195Z,984.14
2016-03-31T06:01:55.184Z,984.13
2016-03-31T06:02:55.186Z,984.11
2016-03-31T06:03:55.189Z,984.12
2016-03-31T06:04:55.207Z,984.17
2016-03-31T06:05:55.194Z,984.15
2016-03-31T06:06:55.181Z,984.14
2016-03-31T06:07:55.184Z,984.16
2016-03-31T06:08:55.202Z,984.21
2016-03-31T06:09:55.189Z,984.23
2016-03-31T06:10:55.192Z,984.26
2016-03-31T06:11:55.195Z,984.3
2016-03-31T06:12:55.197Z,984.24
2016-03-31T06:13:55.200Z,984.27
2016-03-31T06:14:55.188Z,984.3
2016-03-31T06:15:55.205Z,984.29
2016-03-31T06:16:55.208Z,984.31
2016-03-31T06:17:55.196Z,984.26
2016-03-31T06:18:55.182Z,984.26
2016-03-31T06:19:55.185Z,984.25
2016-03-31T06:20:55.187Z,984.23
2016-03-31T06:21:55.190Z,984.25
2016-03-31T06:22:55.193Z,984.2
2016-03-31T06:23:55.196Z,984.18
2016-03-31T06:24:55.198Z,984.15
2016-03-31T06:25:55.201Z,984.14
2016-03-31T06:26:55.204Z,984.15
2016-03-31T06:27:55.191Z,984.21
2016-03-31T06:28:55.193Z,984.23
2016-03-31T06:29:55.196Z,984.23
2016-03-31T06:30:55.199Z,984.23
2016-03-31T06:31:55.201Z,984.25
2016-03-31T06:32:55.204Z,984.29
2016-03-31T06:33:55.206Z,984.3
2016-03-31T06:34:55.210Z,984.29
2016-03-31T06:35:55.197Z,984.29
2016-03-31T06:36:55.199Z,984.24
2016-03-31T06:37:55.203Z,984.2
2016-03-31T06:38:55.205Z,984.26
2016-03-31T06:39:55.208Z,984.24
2016-03-31T06:40:55.211Z,984.22
2016-03-31T06:41:55.213Z,984.24
2016-03-31T06:42:55.216Z,984.15
2016-03-31T06:43:55.202Z,984.13
2016-03-31T06:44:55.205Z,984.14
2016-03-31T06:45:55.208Z,984.11
2016-03-31T06:46:55.226Z,984.1
2016-03-31T06:47:55.230Z,984.09
2016-03-31T06:48:55.232Z,984.06
2016-03-31T06:49:55.234Z,984.1
2016-03-31T06:50:55.222Z,984.13
2016-03-31T06:51:55.240Z,984.07
2016-03-31T06:52:55.226Z,984.03
2016-03-31T06:53:55.230Z,984.04
2016-03-31T06:54:55.248Z,984.03
2016-03-31T06:55:55.235Z,984.03
2016-03-31T06:56:55.238Z,983.99
2016-03-31T06:57:55.240Z,984.03
2016-03-31T06:58:55.243Z,984.02
2016-03-31T06:59:55.245Z,984.05
2016-03-31T07:00:55.248Z,984.05
2016-03-31T07:01:55.267Z,984.03
2016-03-31T07:02:55.269Z,984.03
2016-03-31T07:03:55.273Z,984.03
2016-03-31T07:04:55.275Z,984.04
2016-03-31T07:05:55.277Z,984.01
2016-03-31T07:06:55.281Z,984.04
2016-03-31T07:07:55.303Z,984.05
2016-03-31T07:08:55.291Z,984.05
2016-03-31T07:09:55.293Z,984.09
2016-03-31T07:10:55.311Z,984.12
2016-03-31T07:11:55.314Z,984.12
2016-03-31T07:12:55.316Z,984.13
2016-03-31T07:13:55.319Z,984.21
2016-03-31T07:14:55.338Z,984.17
2016-03-31T07:15:55.340Z,984.22
2016-03-31T07:16:55.344Z,984.13
2016-03-31T07:17:55.346Z,984.17
2016-03-31T07:18:55.348Z,984.12
2016-03-31T07:19:55.352Z,984.14
2016-03-31T07:20:55.354Z,984.17
2016-03-31T07:21:55.371Z,984.15
2016-03-31T07:22:55.374Z,984.14
2016-03-31T07:23:55.378Z,984.18
2016-03-31T07:24:55.380Z,984.19
2016-03-31T07:25:55.382Z,984.14
2016-03-31T07:26:55.401Z,984.1
2016-03-31T07:27:55.404Z,984.1
2016-03-31T07:28:55.406Z,984.14
2016-03-31T07:29:55.409Z,984.13
2016-03-31T07:30:55.428Z,984.11
2016-03-31T07:31:55.414Z,984.05
2016-03-31T07:32:55.433Z,984.03
2016-03-31T07:33:55.436Z,984.01
2016-03-31T07:34:55.454Z,984.05
2016-03-31T07:35:55.456Z,984.01
2016-03-31T07:36:55.459Z,983.98
2016-03-31T07:37:55.462Z,983.96
2016-03-31T07:38:55.480Z,983.96
2016-03-31T07:39:55.483Z,983.91
2016-03-31T07:40:55.486Z,983.92
2016-03-31T07:41:55.488Z,983.92
2016-03-31T07:42:55.507Z,983.87
2016-03-31T07:43:55.510Z,983.83
2016-03-31T07:44:55.528Z,983.89
2016-03-31T07:45:55.530Z,983.82
2016-03-31T07:46:55.549Z,983.88
2016-03-31T07:47:55.551Z,983.83
2016-03-31T07:48:55.555Z,983.82
2016-03-31T07:49:55.572Z,983.81
2016-03-31T07:50:55.575Z,983.8
2016-03-31T07:51:55.578Z,983.77
2016-03-31T07:52:55.596Z,983.79
2016-03-31T07:53:55.599Z,983.77
2016-03-31T07:54:55.601Z,983.8
2016-03-31T07:55:55.604Z,983.79
2016-03-31T07:56:55.638Z,983.76
2016-03-31T07:57:55.625Z,983.71
2016-03-31T07:58:55.628Z,983.69
2016-03-31T07:59:55.662Z,983.68
2016-03-31T08:00:55.649Z,983.7
2016-03-31T08:01:55.667Z,983.68
2016-03-31T08:02:55.670Z,983.7
2016-03-31T08:03:55.703Z,983.69
2016-03-31T08:04:55.691Z,983.72
2016-03-31T08:05:55.694Z,983.71
2016-03-31T08:06:55.712Z,983.7
2016-03-31T08:07:55.715Z,983.66
2016-03-31T08:08:55.717Z,983.7
2016-03-31T08:09:55.736Z,983.72
2016-03-31T08:10:55.739Z,983.68
2016-03-31T08:11:55.757Z,983.67
2016-03-31T08:12:55.775Z,983.69
2016-03-31T08:13:55.778Z,983.67
2016-03-31T08:14:55.780Z,983.61
2016-03-31T08:15:55.783Z,983.57
2016-03-31T08:16:55.801Z,983.58
2016-03-31T08:17:55.820Z,983.57
2016-03-31T08:18:55.822Z,983.52
2016-03-31T08:19:55.825Z,983.57
2016-03-31T08:20:55.827Z,983.52
2016-03-31T08:21:55.846Z,983.49
2016-03-31T08:22:55.865Z,983.5
2016-03-31T08:23:55.867Z,983.51
2016-03-31T08:24:55.870Z,983.5
2016-03-31T08:25:55.872Z,983.45
2016-03-31T08:26:55.890Z,983.51
2016-03-31T08:27:55.909Z,983.53
2016-03-31T08:28:55.911Z,983.49
2016-03-31T08:29:55.915Z,983.5
2016-03-31T08:30:55.932Z,983.46
2016-03-31T08:31:55.951Z,983.48
2016-03-31T08:32:55.937Z,983.45
2016-03-31T08:33:55.956Z,983.44
2016-03-31T08:34:55.959Z,983.44
2016-03-31T08:35:55.978Z,983.41
2016-03-31T08:36:55.995Z,983.4
2016-03-31T08:37:55.983Z,983.41
2016-03-31T08:38:56.001Z,983.43
2016-03-31T08:39:56.003Z,983.42
2016-03-31T08:40:56.023Z,983.42
2016-03-31T08:41:56.025Z,983.4
2016-03-31T08:42:56.028Z,983.38
2016-03-31T08:43:56.031Z,983.42
2016-03-31T08:44:56.049Z,983.38
2016-03-31T08:45:56.052Z,983.41
2016-03-31T08:46:56.055Z,983.4
2016-03-31T08:47:56.057Z,983.42
2016-03-31T08:48:56.075Z,983.43
2016-03-31T08:49:56.078Z,983.42
2016-03-31T08:50:56.080Z,983.44
2016-03-31T08:51:56.082Z,983.41
2016-03-31T08:52:56.085Z,983.43
2016-03-31T08:53:56.104Z,983.49
2016-03-31T08:54:56.091Z,983.46
2016-03-31T08:55:56.109Z,983.46
2016-03-31T08:56:56.112Z,983.45
2016-03-31T08:57:56.115Z,983.41
2016-03-31T08:58:56.118Z,983.39
2016-03-31T08:59:56.120Z,983.4
2016-03-31T09:00:56.138Z,983.36
2016-03-31T09:01:56.141Z,983.33
2016-03-31T09:02:56.144Z,983.34
2016-03-31T09:03:56.146Z,983.31
2016-03-31T09:04:56.148Z,983.26
2016-03-31T09:05:56.152Z,983.26
2016-03-31T09:06:56.170Z,983.26
2016-03-31T09:07:56.156Z,983.32
2016-03-31T09:08:56.159Z,983.32
2016-03-31T09:09:56.178Z,983.27
2016-03-31T09:10:56.181Z,983.27
2016-03-31T09:11:56.183Z,983.29
2016-03-31T09:12:56.186Z,983.3
2016-03-31T09:13:56.189Z,983.25
2016-03-31T09:14:56.207Z,983.25
2016-03-31T09:15:56.194Z,983.23
2016-03-31T09:16:56.197Z,983.14
2016-03-31T09:17:56.216Z,983.11
2016-03-31T09:18:56.219Z,983.08
2016-03-31T09:19:56.221Z,983.04
2016-03-31T09:20:56.224Z,982.99
2016-03-31T09:21:56.227Z,982.97
2016-03-31T09:22:56.244Z,982.94
2016-03-31T09:23:56.247Z,982.97
2016-03-31T09:24:56.249Z,982.91
2016-03-31T09:25:56.253Z,982.92
2016-03-31T09:26:56.255Z,982.92
2016-03-31T09:27:56.258Z,982.92
2016-03-31T09:28:56.261Z,982.9
2016-03-31T09:29:56.279Z,982.92
2016-03-31T09:30:56.266Z,982.87
2016-03-31T09:31:56.284Z,982.83
2016-03-31T09:32:56.287Z,982.86
2016-03-31T09:33:56.290Z,982.82
2016-03-31T09:34:56.309Z,982.8
2016-03-31T09:35:56.311Z,982.77
2016-03-31T09:36:56.314Z,982.76
2016-03-31T09:37:56.317Z,982.76
2016-03-31T09:38:56.319Z,982.81
2016-03-31T09:39:56.322Z,982.81
2016-03-31T09:40:56.325Z,982.74
2016-03-31T09:41:56.328Z,982.73
2016-03-31T09:42:56.330Z,982.74
2016-03-31T09:43:56.348Z,982.76
2016-03-31T09:44:56.351Z,982.75
2016-03-31T09:45:56.354Z,982.68
2016-03-31T09:46:56.356Z,982.68
2016-03-31T09:47:56.389Z,982.72
2016-03-31T09:48:56.361Z,982.72
2016-03-31T09:49:56.379Z,982.7
2016-03-31T09:50:56.382Z,982.65
2016-03-31T09:51:56.385Z,982.65
2016-03-31T09:52:56.388Z,982.67
2016-03-31T09:53:56.391Z,982.67
2016-03-31T09:54:56.394Z,982.65
2016-03-31T09:55:56.411Z,982.61
2016-03-31T09:56:56.414Z,982.62
2016-03-31T09:57:56.417Z,982.55
2016-03-31T09:58:56.419Z,982.62
2016-03-31T09:59:56.422Z,982.66
2016-03-31T10:00:56.440Z,982.57
2016-03-31T10:01:56.427Z,982.61
2016-03-31T10:02:56.462Z,982.56
2016-03-31T10:03:56.449Z,982.54
2016-03-31T10:04:56.452Z,982.49
2016-03-31T10:05:56.470Z,982.53
2016-03-31T10:06:56.472Z,982.46
2016-03-31T10:07:56.475Z,982.43
2016-03-31T10:08:56.478Z,982.41
2016-03-31T10:09:56.481Z,982.45
2016-03-31T10:10:56.484Z,982.41
2016-03-31T10:11:56.501Z,982.42
2016-03-31T10:12:56.503Z,982.37
2016-03-31T10:13:56.506Z,982.3
2016-03-31T10:14:56.509Z,982.24
2016-03-31T10:15:56.528Z,982.23
2016-03-31T10:16:56.531Z,982.25
2016-03-31T10:17:56.533Z,982.26
2016-03-31T10:18:56.552Z,982.23
2016-03-31T10:19:56.539Z,982.27
2016-03-31T10:20:56.557Z,982.21
2016-03-31T10:21:56.561Z,982.21
2016-03-31T10:22:56.578Z,982.2
2016-03-31T10:23:56.566Z,982.15
2016-03-31T10:24:56.583Z,982.16
2016-03-31T10:25:56.586Z,982.09
2016-03-31T10:26:56.589Z,982.11
2016-03-31T10:27:56.591Z,982.1
2016-03-31T10:28:56.610Z,982.12
2016-03-31T10:29:56.612Z,982.1
2016-03-31T10:30:56.615Z,982.07
2016-03-31T10:31:56.618Z,982.01
2016-03-31T10:32:56.636Z,982.01
2016-03-31T10:33:56.638Z,981.98
2016-03-31T10:34:56.641Z,981.99
2016-03-31T10:35:56.659Z,981.95
2016-03-31T10:36:56.662Z,981.95
2016-03-31T10:37:56.665Z,981.94
2016-03-31T10:38:56.668Z,981.89
2016-03-31T10:39:56.671Z,981.9
2016-03-31T10:40:56.689Z,981.82
2016-03-31T10:41:56.692Z,981.82
2016-03-31T10:42:56.709Z,981.77
2016-03-31T10:43:56.729Z,981.79
2016-03-31T10:44:56.715Z,981.79
2016-03-31T10:45:56.812Z,981.79
2016-03-31T10:46:56.736Z,981.76
2016-03-31T10:47:56.739Z,981.72
2016-03-31T10:48:56.742Z,981.67
2016-03-31T10:49:56.744Z,981.63
2016-03-31T10:50:56.763Z,981.58
2016-03-31T10:51:56.766Z,981.58
2016-03-31T10:52:56.769Z,981.56
2016-03-31T10:53:56.786Z,981.51
2016-03-31T10:54:56.805Z,981.53
2016-03-31T10:55:56.807Z,981.5
2016-03-31T10:56:56.810Z,981.47
2016-03-31T10:57:56.813Z,981.42
2016-03-31T10:58:56.816Z,981.47
2016-03-31T10:59:56.819Z,981.45
2016-03-31T11:00:56.836Z,981.45
2016-03-31T11:01:56.839Z,981.46
2016-03-31T11:02:56.842Z,981.43
2016-03-31T11:03:56.860Z,981.41
2016-03-31T11:04:56.863Z,981.38
2016-03-31T11:05:56.866Z,981.38
2016-03-31T11:06:56.884Z,981.38
2016-03-31T11:07:56.887Z,981.42
2016-03-31T11:08:56.889Z,981.44
2016-03-31T11:09:56.907Z,981.37
2016-03-31T11:10:56.910Z,981.38
2016-03-31T11:11:56.913Z,981.35
2016-03-31T11:12:56.931Z,981.4
2016-03-31T11:13:56.934Z,981.4
2016-03-31T11:14:56.953Z,981.45
2016-03-31T11:15:56.940Z,981.45
2016-03-31T11:16:56.973Z,981.4
2016-03-31T11:17:56.961Z,981.42
2016-03-31T11:18:56.964Z,981.47
2016-03-31T11:19:56.981Z,981.51
2016-03-31T11:20:56.984Z,981.49
2016-03-31T11:21:57.003Z,981.44
2016-03-31T11:22:57.005Z,981.35
2016-03-31T11:23:57.008Z,981.32
2016-03-31T11:24:57.011Z,981.24
2016-03-31T11:25:57.029Z,981.21
2016-03-31T11:26:57.047Z,981.14
2016-03-31T11:27:57.050Z,981.19
2016-03-31T11:28:57.052Z,981.26
2016-03-31T11:29:57.055Z,981.3
2016-03-31T11:30:57.073Z,981.34
2016-03-31T11:31:57.076Z,981.34
2016-03-31T11:32:57.079Z,981.36
2016-03-31T11:33:57.096Z,981.34
2016-03-31T11:34:57.116Z,981.34
2016-03-31T11:35:57.118Z,981.38
2016-03-31T11:36:57.120Z,981.37
2016-03-31T11:37:57.123Z,981.34
2016-03-31T11:38:57.142Z,981.43
2016-03-31T11:39:57.145Z,981.41
2016-03-31T11:40:57.148Z,981.39
2016-03-31T11:41:57.165Z,981.35
2016-03-31T11:42:57.168Z,981.37
2016-03-31T11:43:57.186Z,981.39
2016-03-31T11:44:57.189Z,981.42
2016-03-31T11:45:57.192Z,981.39
2016-03-31T11:46:57.210Z,981.36
2016-03-31T11:47:57.212Z,981.33
2016-03-31T11:48:57.215Z,981.3
2016-03-31T11:49:57.233Z,981.25
2016-03-31T11:50:57.236Z,981.26
2016-03-31T11:51:57.255Z,981.22
2016-03-31T11:52:57.258Z,981.13
2016-03-31T11:53:57.261Z,981.09
2016-03-31T11:54:57.278Z,981.07
2016-03-31T11:55:57.281Z,981.06
2016-03-31T11:56:57.299Z,981.12
2016-03-31T11:57:57.302Z,981.18
2016-03-31T11:58:57.305Z,981.2
2016-03-31T11:59:57.323Z,981.25
2016-03-31T12:00:57.327Z,981.24
2016-03-31T12:01:57.344Z,981.23
2016-03-31T12:02:57.347Z,981.28
2016-03-31T12:03:57.366Z,981.28
2016-03-31T12:04:57.369Z,981.23
2016-03-31T12:05:57.371Z,981.24
2016-03-31T12:06:57.374Z,981.2
2016-03-31T12:07:57.391Z,981.17
2016-03-31T12:08:57.394Z,981.2
2016-03-31T12:09:57.412Z,981.15
2016-03-31T12:10:57.431Z,981.17
2016-03-31T12:11:57.449Z,981.12
2016-03-31T12:12:57.437Z,981.1
2016-03-31T12:13:57.440Z,981.06
2016-03-31T12:14:57.457Z,981.04
2016-03-31T12:15:57.460Z,980.98
2016-03-31T12:16:57.478Z,980.91
2016-03-31T12:17:57.497Z,980.91
2016-03-31T12:18:57.483Z,980.85
2016-03-31T12:19:57.503Z,980.81
2016-03-31T12:20:57.505Z,980.84
2016-03-31T12:21:57.508Z,980.8
2016-03-31T12:22:57.526Z,980.75
2016-03-31T12:23:57.545Z,980.76
2016-03-31T12:24:57.547Z,980.77
2016-03-31T12:25:57.550Z,980.77
2016-03-31T12:26:57.567Z,980.77
2016-03-31T12:27:57.570Z,980.77
2016-03-31T12:28:57.572Z,980.72
2016-03-31T12:29:57.591Z,980.75
2016-03-31T12:30:57.594Z,980.72
2016-03-31T12:31:57.597Z,980.72